Time;durP1;ratioP1;P1;durP2;ratioP2;P2;SDS_P1;SDS_P2;PMS_P1;PMS_P2;Temp;Humidity;BMP_temperature;BMP_pressure;BME280_temperature;BME280_humidity;BME280_pressure;Samples;Min_cycle;Max_cycle;Signal;HPM_P1;HPM_P2
2022/11/28 00:01:56;;;;;;;15.43;6.78;;;;;;;-2.58;78.54;101128.00;4925638;28;20056;-82
2022/11/28 00:04:27;;;;;;;15.45;5.97;;;;;;;-2.55;78.88;101120.47;4922759;28;20053;-82
2022/11/28 00:06:58;;;;;;;15.00;5.68;;;;;;;-2.50;78.82;101129.28;4933547;28;20045;-81
2022/11/28 00:09:29;;;;;;;17.27;5.70;;;;;;;-2.55;78.52;101130.72;4930485;28;20056;-81
2022/11/28 00:12:01;;;;;;;15.13;5.63;;;;;;;-2.45;79.05;101140.59;4928599;28;20059;-82
2022/11/28 00:14:32;;;;;;;9.20;5.10;;;;;;;-2.41;78.98;101145.97;4928867;28;20048;-82
2022/11/28 00:17:02;;;;;;;19.77;6.60;;;;;;;-2.30;78.96;101159.28;4921111;28;20056;-82
2022/11/28 00:19:33;;;;;;;31.90;14.27;;;;;;;-2.32;78.87;101166.03;4928848;28;20044;-82
2022/11/28 00:22:04;;;;;;;16.73;7.45;;;;;;;-2.44;78.55;101155.19;4927629;28;20048;-82
2022/11/28 00:24:35;;;;;;;22.58;11.30;;;;;;;-2.41;78.93;101155.34;4929005;28;20052;-82
2022/11/28 00:27:07;;;;;;;13.20;6.68;;;;;;;-2.41;78.92;101160.44;4928231;28;20044;-82
2022/11/28 00:29:39;;;;;;;14.18;5.78;;;;;;;-2.41;79.27;101160.44;4917906;28;20045;-81
2022/11/28 00:32:10;;;;;;;53.50;21.48;;;;;;;-2.43;79.40;101159.50;4927235;28;20090;-82
2022/11/28 00:34:41;;;;;;;36.10;14.70;;;;;;;-2.36;79.71;101161.56;4928937;28;20048;-82
2022/11/28 00:37:12;;;;;;;41.10;15.85;;;;;;;-2.29;79.95;101163.63;4928369;28;20040;-82
2022/11/28 00:39:42;;;;;;;34.47;14.27;;;;;;;-2.29;80.15;101150.81;4929131;28;20049;-82
2022/11/28 00:42:19;;;;;;;35.58;12.63;;;;;;;-2.09;79.83;101176.53;4928623;28;20120;-83
2022/11/28 00:44:50;;;;;;;78.18;30.05;;;;;;;-2.32;79.93;101125.09;4917860;28;20064;-81
2022/11/28 00:47:21;;;;;;;29.55;13.30;;;;;;;-1.94;79.93;101173.84;4919781;28;20067;-82
2022/11/28 00:49:52;;;;;;;24.27;10.95;;;;;;;-2.04;79.85;101167.41;4928645;28;20070;-81
2022/11/28 00:52:23;;;;;;;18.70;8.57;;;;;;;-2.01;80.10;101167.53;4924136;28;20407;-82
2022/11/28 00:54:53;;;;;;;17.15;6.40;;;;;;;-1.88;80.34;101182.69;4923506;28;20049;-80
2022/11/28 00:57:26;;;;;;;16.63;7.10;;;;;;;-1.83;80.22;101176.09;4928349;28;20048;-80
2022/11/28 00:59:56;;;;;;;32.08;13.13;;;;;;;-1.90;80.00;101176.59;4927176;28;20262;-80
2022/11/28 01:02:27;;;;;;;29.38;12.60;;;;;;;-2.00;79.84;101169.28;4934973;28;20053;-80
2022/11/28 01:04:58;;;;;;;24.42;7.93;;;;;;;-1.95;80.09;101183.19;4929120;28;20057;-80
2022/11/28 01:07:29;;;;;;;18.92;6.47;;;;;;;-1.98;80.45;101188.19;4927690;28;20059;-80
2022/11/28 01:09:59;;;;;;;13.80;6.47;;;;;;;-2.02;80.59;101181.13;4929307;28;20087;-80
2022/11/28 01:12:32;;;;;;;10.95;5.60;;;;;;;-1.91;81.61;101180.00;4928703;28;20052;-80
2022/11/28 01:15:03;;;;;;;16.92;5.40;;;;;;;-1.76;81.68;101160.22;4928459;28;20041;-80
2022/11/28 01:17:34;;;;;;;11.65;5.45;;;;;;;-1.70;81.42;101166.44;4928377;28;20240;-80
2022/11/28 01:20:07;;;;;;;11.10;4.95;;;;;;;-1.54;81.55;101171.50;4927888;28;20344;-80
2022/11/28 01:22:38;;;;;;;14.63;4.60;;;;;;;-1.49;80.81;101170.03;4918930;28;20054;-80
2022/11/28 01:25:09;;;;;;;11.38;4.32;;;;;;;-1.36;81.04;101172.34;4927773;28;20071;-80
2022/11/28 01:27:41;;;;;;;9.55;4.90;;;;;;;-1.29;80.58;101167.53;4923557;28;20246;-80
2022/11/28 01:30:12;;;;;;;12.93;4.07;;;;;;;-1.27;80.46;101171.00;4925896;28;20049;-82
2022/11/28 01:32:43;;;;;;;11.85;4.85;;;;;;;-1.41;80.16;101153.31;4927613;28;20040;-81
2022/11/28 01:35:14;;;;;;;7.78;3.83;;;;;;;-1.33;80.04;101175.06;4927845;28;20282;-80
2022/11/28 01:37:44;;;;;;;6.38;3.55;;;;;;;-1.51;79.35;101161.38;4927940;28;20056;-81
2022/11/28 01:40:15;;;;;;;11.02;4.05;;;;;;;-1.21;79.23;101186.69;4924172;28;20053;-85
2022/11/28 01:42:48;;;;;;;8.45;4.47;;;;;;;-1.12;79.03;101182.00;4928109;28;20115;-80
2022/11/28 01:45:23;;;;;;;7.80;3.33;;;;;;;-0.94;77.47;101198.22;4912098;28;20177;-80
2022/11/28 01:47:58;;;;;;;7.72;3.45;;;;;;;-0.87;77.00;101189.97;4925666;28;20071;-80
2022/11/28 01:50:30;;;;;;;6.60;3.20;;;;;;;-0.77;76.77;101186.13;4920536;28;20094;-80
2022/11/28 01:53:05;;;;;;;6.15;3.40;;;;;;;-0.68;76.64;101159.97;4930709;28;20060;-80
2022/11/28 01:55:41;;;;;;;9.32;4.10;;;;;;;-0.48;75.58;101164.28;4916902;28;20340;-80
2022/11/28 01:58:13;;;;;;;9.27;4.05;;;;;;;-0.16;75.58;101172.47;4915622;28;20049;-80
2022/11/28 02:00:44;;;;;;;7.85;3.67;;;;;;;-0.18;74.81;101168.94;4929927;28;20114;-81
2022/11/28 02:03:21;;;;;;;7.28;3.58;;;;;;;-0.30;74.44;101164.22;4930366;28;20056;-81
2022/11/28 02:05:53;;;;;;;9.95;3.50;;;;;;;-0.33;74.03;101165.75;4920318;28;20063;-82
2022/11/28 02:08:24;;;;;;;8.55;3.83;;;;;;;-0.37;74.48;101157.06;4931790;28;20086;-80
2022/11/28 02:11:23;;;;;;;7.45;4.28;;;;;;;-0.39;74.55;101147.53;4931194;28;20064;-80
2022/11/28 02:14:06;;;;;;;7.90;3.85;;;;;;;-0.47;74.81;101150.66;4926927;28;20344;-79
2022/11/28 02:16:51;;;;;;;18.70;6.13;;;;;;;-0.51;75.57;101141.06;4912279;28;20067;-80
2022/11/28 02:20:21;;;;;;;9.40;3.70;;;;;;;-0.46;75.57;101160.09;4920613;28;20052;-80
2022/11/28 02:22:58;;;;;;;7.13;3.67;;;;;;;-0.53;75.06;101170.91;4891977;28;20137;-80
2022/11/28 02:26:05;;;;;;;5.95;3.42;;;;;;;-0.75;75.41;101143.47;4921285;28;20056;-80
2022/11/28 02:29:07;;;;;;;17.83;5.95;;;;;;;-0.73;75.40;101166.59;4906200;28;20044;-80
2022/11/28 02:32:09;;;;;;;22.00;7.88;;;;;;;-0.85;75.08;101160.94;4920704;28;20049;-80
2022/11/28 02:34:50;;;;;;;31.58;10.80;;;;;;;-0.85;75.01;101145.53;4900625;28;20348;-80
2022/11/28 02:37:27;;;;;;;47.22;16.17;;;;;;;-0.41;75.42;101187.66;4908855;28;20390;-80
2022/11/28 02:40:07;;;;;;;25.23;9.85;;;;;;;-0.48;74.93;101166.84;4923500;28;20045;-80
2022/11/28 02:42:51;;;;;;;11.63;4.88;;;;;;;-0.34;74.22;101177.72;4920728;28;20051;-80
2022/11/28 02:45:30;;;;;;;22.20;9.15;;;;;;;-0.15;73.77;101194.78;4919281;28;20071;-82
2022/11/28 02:48:05;;;;;;;24.38;9.02;;;;;;;-0.06;73.29;101197.72;4920012;28;20328;-80
2022/11/28 02:50:42;;;;;;;19.73;7.63;;;;;;;-0.08;73.26;101171.09;4930768;28;20131;-80
2022/11/28 02:53:19;;;;;;;7.88;3.65;;;;;;;0.29;72.24;101203.44;4918834;28;20048;-80
2022/11/28 02:55:52;;;;;;;7.32;2.90;;;;;;;0.08;70.84;101194.88;4920504;28;20344;-80
2022/11/28 02:58:22;;;;;;;4.93;2.90;;;;;;;-0.31;71.32;101202.66;4930605;28;20067;-80
2022/11/28 03:00:54;;;;;;;4.03;2.35;;;;;;;-0.66;72.17;101196.88;4929624;28;20086;-81
2022/11/28 03:04:03;;;;;;;3.40;1.80;;;;;;;-0.97;72.15;101203.22;4930448;28;20053;-81
2022/11/28 03:06:44;;;;;;;3.03;2.00;;;;;;;-1.25;71.83;101205.31;4916391;28;20090;-80
2022/11/28 03:09:37;;;;;;;2.25;1.50;;;;;;;-1.18;71.71;101192.81;4916416;28;20056;-79
2022/11/28 03:12:23;;;;;;;1.35;1.15;;;;;;;-1.23;71.03;101203.69;4909623;28;20048;-80
2022/11/28 03:14:55;;;;;;;1.95;1.40;;;;;;;-1.26;71.18;101208.69;4902976;28;20057;-80
2022/11/28 03:17:39;;;;;;;2.78;1.58;;;;;;;-1.72;71.99;101135.66;4929959;28;20044;-81
2022/11/28 03:20:23;;;;;;;4.20;1.38;;;;;;;-1.99;71.80;101095.09;4919289;28;20048;-81
2022/11/28 03:23:04;;;;;;;2.70;1.10;;;;;;;-1.44;71.25;101178.81;4923157;28;20240;-81
2022/11/28 03:25:42;;;;;;;3.30;1.20;;;;;;;-1.45;71.82;101182.16;4927420;28;20056;-81
2022/11/28 03:28:21;;;;;;;2.15;1.25;;;;;;;-1.39;71.08;101182.47;4919872;28;20044;-82
2022/11/28 03:30:55;;;;;;;1.75;1.23;;;;;;;-1.46;71.31;101159.91;4918131;28;20044;-81
2022/11/28 03:33:28;;;;;;;1.60;1.20;;;;;;;-1.62;70.76;101142.06;4929876;28;20053;-81
2022/11/28 03:36:06;;;;;;;1.58;1.20;;;;;;;-1.37;71.30;101162.91;4915689;28;20056;-81
2022/11/28 03:38:41;;;;;;;2.22;1.20;;;;;;;-1.42;70.40;101171.19;4927026;28;20056;-81
2022/11/28 03:41:15;;;;;;;2.75;1.30;;;;;;;-1.48;70.69;101199.97;4928938;28;20230;-81
2022/11/28 03:43:52;;;;;;;3.53;1.98;;;;;;;-1.68;70.67;101157.16;4929503;28;20066;-81
2022/11/28 03:46:27;;;;;;;3.38;1.75;;;;;;;-1.46;70.80;101189.81;4917361;28;20049;-82
2022/11/28 03:49:00;;;;;;;3.20;1.65;;;;;;;-1.51;70.32;101171.66;4914779;28;20065;-80
2022/11/28 03:51:38;;;;;;;1.27;1.10;;;;;;;-1.55;69.88;101172.28;4916498;28;20052;-80
2022/11/28 03:54:15;;;;;;;2.78;1.33;;;;;;;-1.53;70.52;101163.00;4918882;28;20075;-79
2022/11/28 03:56:53;;;;;;;1.48;1.30;;;;;;;-1.96;68.04;101108.03;4927037;28;20306;-79
2022/11/28 03:59:29;;;;;;;1.75;1.20;;;;;;;-1.58;68.38;101174.72;4918969;28;20036;-79
2022/11/28 04:02:07;;;;;;;3.75;1.50;;;;;;;-1.65;69.23;101182.91;4915248;28;20090;-79
2022/11/28 04:04:46;;;;;;;1.92;1.30;;;;;;;-1.87;69.25;101171.66;4919177;28;20045;-79
2022/11/28 04:07:26;;;;;;;3.67;1.48;;;;;;;-1.94;68.96;101202.91;4917673;28;20048;-79
2022/11/28 04:10:01;;;;;;;;;;;;;;;-1.78;69.92;101225.88;4924408;28;20049;-78
2022/11/28 04:12:40;;;;;;;2.90;1.52;;;;;;;-1.87;70.20;101207.53;4928866;28;20220;-78
2022/11/28 04:15:18;;;;;;;2.78;1.25;;;;;;;-1.81;70.24;101225.75;4913752;28;20044;-78
2022/11/28 04:17:55;;;;;;;1.75;1.30;;;;;;;-1.94;70.10;101220.84;4912850;28;20048;-78
2022/11/28 04:20:33;;;;;;;1.90;1.40;;;;;;;-1.94;70.48;101231.06;4927234;28;20056;-79
2022/11/28 04:23:14;;;;;;;4.35;1.48;;;;;;;-2.12;70.37;101204.53;4941198;28;20047;-78
2022/11/28 04:25:57;;;;;;;3.38;1.40;;;;;;;-2.02;70.74;101227.22;4935478;28;20419;-79
2022/11/28 04:28:30;;;;;;;1.80;1.48;;;;;;;-1.98;71.20;101239.41;4925342;28;20059;-78
2022/11/28 04:31:05;;;;;;;2.40;1.42;;;;;;;-2.18;70.81;101246.94;4928645;28;20052;-78
2022/11/28 04:33:40;;;;;;;1.75;1.40;;;;;;;-2.24;70.87;101226.19;4928385;28;20056;-79
2022/11/28 04:36:14;;;;;;;1.95;1.48;;;;;;;-2.27;70.95;101223.47;4919731;28;20056;-79
2022/11/28 04:38:55;;;;;;;5.65;1.30;;;;;;;-2.11;70.49;101242.16;4928387;28;20106;-78
2022/11/28 04:41:33;;;;;;;5.15;1.70;;;;;;;-2.08;69.77;101247.44;4919083;28;20055;-79
2022/11/28 04:44:10;;;;;;;1.67;1.27;;;;;;;-2.06;68.69;101256.06;4914810;28;20036;-79
2022/11/28 04:46:46;;;;;;;3.95;1.52;;;;;;;-2.23;68.23;101222.81;4914822;28;20055;-79
2022/11/28 04:49:16;;;;;;;2.45;1.45;;;;;;;-2.15;68.66;101245.34;4927152;28;20055;-79
2022/11/28 04:51:53;;;;;;;2.03;1.40;;;;;;;-2.24;68.04;101256.91;4934823;28;20049;-79
2022/11/28 04:54:31;;;;;;;7.57;3.05;;;;;;;-2.25;68.17;101290.97;4928046;28;20040;-79
2022/11/28 04:57:05;;;;;;;4.65;1.48;;;;;;;-2.33;68.24;101261.53;4918925;28;20048;-77
2022/11/28 04:59:36;;;;;;;3.00;1.67;;;;;;;-2.13;68.47;101259.13;4927212;28;20048;-79
2022/11/28 05:02:07;;;;;;;5.30;1.58;;;;;;;-2.06;68.18;101267.19;4924902;28;20789;-79
2022/11/28 05:04:39;;;;;;;3.10;1.50;;;;;;;-2.11;68.10;101242.16;4924964;28;20064;-78
2022/11/28 05:07:12;;;;;;;4.15;1.85;;;;;;;-2.12;67.33;101256.66;4925210;28;20045;-79
2022/11/28 05:09:45;;;;;;;2.03;1.23;;;;;;;-2.27;67.81;101241.38;4927878;28;20048;-79
2022/11/28 05:12:16;;;;;;;4.13;1.58;;;;;;;-2.33;67.91;101245.31;4927812;28;20075;-79
2022/11/28 05:14:47;;;;;;;1.70;1.45;;;;;;;-2.27;68.08;101241.38;4924830;28;20070;-79
2022/11/28 05:17:17;;;;;;;4.43;1.70;;;;;;;-2.20;68.53;101245.13;4913757;28;20053;-78
2022/11/28 05:19:48;;;;;;;3.25;1.80;;;;;;;-2.25;67.88;101239.75;4927079;28;20045;-78
2022/11/28 05:22:19;;;;;;;2.10;1.70;;;;;;;-2.32;68.37;101268.44;4931041;28;20102;-77
2022/11/28 05:24:51;;;;;;;3.40;1.95;;;;;;;-2.48;68.11;101246.25;4932071;28;20044;-78
2022/11/28 05:27:22;;;;;;;3.13;1.70;;;;;;;-2.49;67.61;101285.47;4931217;28;20052;-78
2022/11/28 05:29:53;;;;;;;3.20;1.48;;;;;;;-2.73;67.90;101269.69;4931970;28;20059;-77
2022/11/28 05:32:23;;;;;;;3.05;1.70;;;;;;;-2.64;68.38;101308.56;4932023;28;20044;-78
2022/11/28 05:34:54;;;;;;;6.28;1.92;;;;;;;-2.82;67.42;101317.81;4931974;28;20063;-78
2022/11/28 05:37:25;;;;;;;5.43;1.60;;;;;;;-2.71;66.96;101334.59;4931557;28;20048;-78
2022/11/28 05:39:58;;;;;;;4.07;1.80;;;;;;;-2.87;67.16;101326.88;4931189;28;20044;-78
2022/11/28 05:42:29;;;;;;;6.38;1.77;;;;;;;-3.10;66.95;101313.72;4919747;28;20254;-78
2022/11/28 05:45:00;;;;;;;2.72;1.50;;;;;;;-3.06;67.44;101351.44;4931237;28;20102;-78
2022/11/28 05:47:32;;;;;;;3.40;1.65;;;;;;;-3.08;67.49;101358.16;4932232;28;20481;-78
2022/11/28 05:50:02;;;;;;;6.50;2.08;;;;;;;-3.15;63.77;101350.06;4931089;28;20067;-78
2022/11/28 05:52:33;;;;;;;3.50;1.55;;;;;;;-3.31;64.03;101348.31;4912671;28;20049;-78
2022/11/28 05:55:06;;;;;;;2.95;1.30;;;;;;;-3.39;63.29;101349.56;4927818;28;20109;-77
2022/11/28 05:57:37;;;;;;;2.53;1.75;;;;;;;-3.52;63.49;101366.75;4924787;28;20053;-78
2022/11/28 06:00:09;;;;;;;5.82;1.48;;;;;;;-3.56;63.69;101346.91;4929410;28;20049;-77
2022/11/28 06:02:40;;;;;;;6.32;1.50;;;;;;;-3.65;64.29;101346.34;4919999;28;20339;-78
2022/11/28 06:05:11;;;;;;;2.67;1.65;;;;;;;-3.69;64.38;101354.66;4920375;28;20060;-77
2022/11/28 06:08:01;;;;;;;2.30;1.85;;;;;;;-3.77;64.99;101360.97;4917855;28;20379;-76
2022/11/28 06:10:35;;;;;;;2.35;1.60;;;;;;;-3.82;64.42;101349.59;4930502;28;20120;-76
2022/11/28 06:13:05;;;;;;;2.70;1.67;;;;;;;-3.87;64.24;101356.97;4931364;28;20359;-77
2022/11/28 06:15:37;;;;;;;6.25;1.65;;;;;;;-4.12;64.76;101321.47;4931165;28;20049;-77
2022/11/28 06:18:08;;;;;;;2.78;1.80;;;;;;;-3.92;65.01;101361.84;4935828;28;20045;-77
2022/11/28 06:20:38;;;;;;;3.08;1.70;;;;;;;-3.97;65.32;101355.59;4930247;28;20257;-77
2022/11/28 06:23:10;;;;;;;2.63;1.73;;;;;;;-4.10;65.58;101345.41;4931667;28;20059;-77
2022/11/28 06:25:44;;;;;;;1.80;1.60;;;;;;;-4.02;65.70;101374.84;4928393;28;20131;-78
2022/11/28 06:28:18;;;;;;;3.08;1.83;;;;;;;-4.02;65.70;101377.41;4907838;28;20054;-79
2022/11/28 06:33:47;;;;;;;6.65;1.60;;;;;;;-3.94;65.74;101372.75;4916523;28;20355;-76
2022/11/28 06:36:21;;;;;;;5.10;1.90;;;;;;;-4.00;66.21;101373.25;4924075;28;20715;-77
2022/11/28 06:38:53;;;;;;;6.60;3.10;;;;;;;-3.95;66.34;101397.38;4931204;28;20333;-77
2022/11/28 06:41:25;;;;;;;14.52;3.78;;;;;;;-4.06;66.29;101385.66;4946439;28;20110;-76
2022/11/28 06:43:57;;;;;;;55.30;17.92;;;;;;;-4.05;66.14;101400.19;4931525;28;20045;-77
2022/11/28 06:46:27;;;;;;;48.42;17.00;;;;;;;-4.06;66.46;101408.63;4924718;28;20079;-78
2022/11/28 06:49:00;;;;;;;79.97;28.50;;;;;;;-4.06;67.52;101411.19;4930918;28;20617;-76
2022/11/28 06:51:30;;;;;;;71.57;26.98;;;;;;;-4.03;68.18;101403.72;4930874;28;20282;-76
2022/11/28 06:54:01;;;;;;;48.13;17.48;;;;;;;-4.15;68.51;101387.66;4929662;28;20333;-77
2022/11/28 06:56:36;;;;;;;26.00;10.43;;;;;;;-4.16;67.40;101411.41;4929930;28;20090;-77
2022/11/28 06:59:07;;;;;;;50.80;18.80;;;;;;;-4.19;68.15;101406.13;4924350;28;20054;-77
2022/11/28 07:01:38;;;;;;;46.08;18.90;;;;;;;-4.23;68.73;101419.47;4929660;28;20049;-77
2022/11/28 07:04:19;;;;;;;30.05;12.95;;;;;;;-4.35;68.55;101419.59;4926955;28;20048;-77
2022/11/28 07:06:55;;;;;;;4.53;2.83;;;;;;;-4.45;68.13;101428.34;4906507;28;20049;-77
2022/11/28 07:09:26;;;;;;;7.60;2.70;;;;;;;-4.50;68.29;101437.38;4926640;28;20048;-77
2022/11/28 07:11:59;;;;;;;7.75;2.22;;;;;;;-4.63;68.51;101428.06;4925710;28;20101;-77
2022/11/28 07:14:33;;;;;;;9.65;2.83;;;;;;;-4.61;68.92;101448.59;4930180;28;20111;-78
2022/11/28 07:17:03;;;;;;;10.00;4.13;;;;;;;-4.61;69.81;101458.78;4929576;28;20063;-77
2022/11/28 07:19:34;;;;;;;6.60;3.85;;;;;;;-4.65;70.84;101459.38;4926347;28;20052;-78
2022/11/28 07:22:10;;;;;;;49.60;27.42;;;;;;;-4.74;70.60;101451.13;4922008;28;20071;-79
2022/11/28 07:24:40;;;;;;;17.95;9.02;;;;;;;-4.79;70.19;101454.28;4926583;28;20067;-79
2022/11/28 07:27:13;;;;;;;23.70;10.20;;;;;;;-4.92;70.17;101449.16;4929589;28;20102;-77
2022/11/28 07:29:43;;;;;;;13.80;6.53;;;;;;;-4.94;70.44;101460.94;4928021;28;20044;-80
2022/11/28 07:32:14;;;;;;;9.18;4.38;;;;;;;-5.05;70.46;101461.88;4929515;28;20044;-78
2022/11/28 07:34:45;;;;;;;6.68;3.63;;;;;;;-5.08;70.62;101459.16;4929328;28;20068;-78
2022/11/28 07:37:19;;;;;;;6.15;3.63;;;;;;;-5.10;71.02;101458.16;4919769;28;20060;-77
2022/11/28 07:39:54;;;;;;;5.28;3.00;;;;;;;-5.10;71.49;101463.25;4930426;28;20045;-78
2022/11/28 07:42:30;;;;;;;7.30;2.63;;;;;;;-5.08;71.72;101466.78;4921476;28;20065;-79
2022/11/28 07:45:11;;;;;;;5.65;2.88;;;;;;;-5.32;71.37;101426.16;4929187;28;20344;-79
2022/11/28 07:47:42;;;;;;;9.02;3.20;;;;;;;-5.37;71.69;101430.06;4919671;28;20062;-78
2022/11/28 07:50:15;;;;;;;5.25;2.00;;;;;;;-5.39;72.00;101439.28;4929111;28;20083;-78
2022/11/28 07:52:50;;;;;;;14.10;4.20;;;;;;;-5.47;72.35;101435.31;4919424;28;20128;-77
2022/11/28 07:55:21;;;;;;;4.65;2.58;;;;;;;-5.59;72.18;101439.59;4929800;28;20070;-77
2022/11/28 07:57:54;;;;;;;43.28;14.65;;;;;;;-5.59;72.50;101439.59;4928733;28;20044;-78
2022/11/28 08:00:25;;;;;;;37.15;12.98;;;;;;;-5.48;72.73;101443.75;4929038;28;20098;-79
2022/11/28 08:02:57;;;;;;;10.73;6.15;;;;;;;-5.38;72.11;101441.03;4927822;28;20366;-78
2022/11/28 08:05:30;;;;;;;9.68;5.78;;;;;;;-5.27;72.63;101450.28;4932733;28;20053;-77
2022/11/28 08:08:01;;;;;;;5.15;3.47;;;;;;;-5.27;72.49;101442.63;4929509;28;20048;-77
2022/11/28 08:10:32;;;;;;;6.43;4.10;;;;;;;-5.16;72.99;101438.25;4928443;28;20037;-77
2022/11/28 08:13:06;;;;;;;4.28;2.90;;;;;;;-5.14;72.80;101435.78;4929091;28;20067;-77
2022/11/28 08:15:38;;;;;;;7.00;2.80;;;;;;;-5.26;72.18;101441.88;4924137;28;20092;-77
2022/11/28 08:18:13;;;;;;;6.60;3.20;;;;;;;-5.22;72.24;101454.03;4919289;28;20045;-78
2022/11/28 08:20:47;;;;;;;6.88;3.50;;;;;;;-5.17;72.61;101455.97;4914742;28;20048;-77
2022/11/28 08:23:19;;;;;;;9.32;3.95;;;;;;;-5.16;73.44;101445.03;4919048;28;20360;-78
2022/11/28 08:25:50;;;;;;;16.83;5.70;;;;;;;-4.97;73.73;101455.63;4924724;28;20041;-78
2022/11/28 08:28:24;;;;;;;11.57;4.47;;;;;;;-5.08;71.94;101471.88;4926226;28;20116;-77
2022/11/28 08:30:54;;;;;;;13.95;4.57;;;;;;;-5.25;71.46;101474.19;4921633;28;20041;-77
2022/11/28 08:33:26;;;;;;;10.68;5.35;;;;;;;-5.65;71.71;101435.00;4926999;28;20340;-78
2022/11/28 08:35:56;;;;;;;8.35;4.35;;;;;;;-5.73;72.71;101467.56;4927237;28;20249;-78
2022/11/28 08:38:27;;;;;;;8.55;3.05;;;;;;;-5.96;74.14;101472.78;4929213;28;20372;-78
2022/11/28 08:41:03;;;;;;;8.77;2.85;;;;;;;-6.14;74.84;101473.28;4927642;28;20064;-78
2022/11/28 08:43:36;;;;;;;18.23;5.47;;;;;;;-6.16;75.28;101474.81;4928326;28;20078;-78
2022/11/28 08:46:10;;;;;;;7.20;3.58;;;;;;;-6.10;75.81;101490.50;4922630;28;20049;-78
2022/11/28 08:48:42;;;;;;;9.48;4.43;;;;;;;-6.22;76.02;101474.38;4929221;28;20041;-77
2022/11/28 08:51:15;;;;;;;6.70;3.53;;;;;;;-6.21;75.89;101476.16;4928138;28;20049;-78
2022/11/28 08:53:46;;;;;;;5.90;2.67;;;;;;;-6.18;75.91;101485.66;4926494;28;20045;-78
2022/11/28 08:56:18;;;;;;;2.75;2.10;;;;;;;-6.20;76.10;101485.53;4918267;28;20356;-78
2022/11/28 08:58:50;;;;;;;2.90;1.90;;;;;;;-6.23;76.25;101495.50;4933202;28;20111;-79
2022/11/28 09:01:23;;;;;;;8.80;4.30;;;;;;;-6.27;76.30;101495.19;4944007;28;20103;-78
2022/11/28 09:03:55;;;;;;;55.17;21.17;;;;;;;-6.21;76.14;101511.78;4923626;28;20040;-79
2022/11/28 09:06:26;;;;;;;36.58;13.23;;;;;;;-6.20;76.48;101493.19;4917955;28;20048;-78
2022/11/28 09:09:00;;;;;;;23.83;9.65;;;;;;;-6.13;76.49;101495.38;4923730;28;20059;-77
2022/11/28 09:11:32;;;;;;;11.25;5.13;;;;;;;-6.10;76.05;101489.63;4931909;28;20048;-78
2022/11/28 09:14:04;;;;;;;12.60;6.07;;;;;;;-6.22;76.01;101484.56;4932152;28;20063;-78
2022/11/28 09:16:35;;;;;;;98.95;31.08;;;;;;;-6.20;75.60;101499.94;4931615;28;20048;-78
2022/11/28 09:19:10;;;;;;;298.90;83.20;;;;;;;-6.35;75.86;101490.44;4928237;28;20060;-78
2022/11/28 09:21:41;;;;;;;30.10;9.30;;;;;;;-6.37;76.46;101514.00;4926427;28;20044;-78
2022/11/28 09:24:14;;;;;;;6.22;3.13;;;;;;;-6.49;77.35;101508.91;4932515;28;20548;-77
2022/11/28 09:26:45;;;;;;;3.72;2.85;;;;;;;-6.60;77.80;101515.75;4930637;28;20044;-78
2022/11/28 09:29:18;;;;;;;5.07;2.88;;;;;;;-6.75;78.54;101510.44;4932047;28;20061;-78
2022/11/28 09:31:49;;;;;;;5.78;2.78;;;;;;;-6.92;79.05;101504.91;4927317;28;20367;-79
2022/11/28 09:34:26;;;;;;;19.13;6.47;;;;;;;-6.92;79.37;101510.88;4931956;28;20127;-77
2022/11/28 09:36:58;;;;;;;47.65;13.68;;;;;;;-6.90;79.50;101523.69;4929349;28;20049;-77
2022/11/28 09:39:33;;;;;;;39.17;12.32;;;;;;;-6.86;79.55;101540.91;4928239;28;20067;-78
2022/11/28 09:42:33;;;;;;;37.70;12.32;;;;;;;-6.86;79.83;101535.84;4912887;28;20090;-77
2022/11/28 09:45:12;;;;;;;16.80;6.13;;;;;;;-6.88;79.56;101519.63;4922082;28;20059;-77
2022/11/28 09:47:46;;;;;;;7.60;3.42;;;;;;;-7.13;79.65;101489.84;4909062;28;20402;-78
2022/11/28 09:50:21;;;;;;;5.93;3.28;;;;;;;-6.93;79.60;101523.47;4927292;28;20060;-78
2022/11/28 09:53:01;;;;;;;9.07;3.10;;;;;;;-6.82;79.68;101540.38;4931137;28;20078;-77
2022/11/28 09:55:38;;;;;;;12.73;4.53;;;;;;;-6.75;79.66;101529.91;4922094;28;20044;-77
2022/11/28 09:58:16;;;;;;;5.43;2.72;;;;;;;-6.97;79.78;101471.53;4933852;28;20048;-78
2022/11/28 10:00:54;;;;;;;7.07;3.55;;;;;;;-6.67;78.98;101527.91;4925705;28;20083;-77
2022/11/28 10:03:40;;;;;;;5.53;3.17;;;;;;;-6.59;78.58;101553.16;4930212;28;20064;-77
2022/11/28 10:06:19;;;;;;;2.97;2.28;;;;;;;-6.77;78.40;101536.53;4921554;28;20109;-77
2022/11/28 10:09:18;;;;;;;3.97;2.38;;;;;;;-6.82;78.82;101543.81;4919327;28;20047;-77
2022/11/28 10:12:02;;;;;;;3.80;2.05;;;;;;;-7.02;78.75;101534.72;4912807;28;20064;-76
2022/11/28 10:15:03;;;;;;;4.45;2.78;;;;;;;-7.14;79.38;101533.78;4901795;28;20045;-77
2022/11/28 10:17:48;;;;;;;5.65;3.78;;;;;;;-7.45;80.01;101475.63;4973646;28;20499;-76
2022/11/28 10:20:24;;;;;;;19.52;7.85;;;;;;;-7.55;80.71;101455.41;4919717;28;20079;-76
2022/11/28 10:22:59;;;;;;;11.60;5.30;;;;;;;-6.83;81.20;101536.09;4930546;28;20060;-76
2022/11/28 10:25:32;;;;;;;6.38;3.17;;;;;;;-6.78;80.63;101539.84;4918283;28;20048;-77
2022/11/28 10:28:06;;;;;;;11.20;4.13;;;;;;;-6.84;80.37;101529.22;4923476;28;20333;-78
2022/11/28 10:30:47;;;;;;;16.92;6.28;;;;;;;-6.86;80.42;101515.50;4924313;28;20084;-78
2022/11/28 10:33:45;;;;;;;15.77;6.45;;;;;;;-6.84;80.51;101508.88;4931819;28;20093;-77
2022/11/28 10:36:29;;;;;;;16.67;7.60;;;;;;;-6.80;80.55;101508.34;4916680;28;20112;-77
2022/11/28 10:39:09;;;;;;;13.18;6.75;;;;;;;-6.73;81.22;101513.13;4915101;28;20075;-77
2022/11/28 10:41:41;;;;;;;;;;;;;;;-6.73;80.65;101508.03;4913994;28;20351;-78
2022/11/28 10:44:19;;;;;;;13.10;5.50;;;;;;;-6.77;80.58;101517.06;4922670;28;20015;-77
2022/11/28 10:47:05;;;;;;;11.88;5.60;;;;;;;-6.80;80.36;101500.72;4905322;28;20083;-77
2022/11/28 10:49:49;;;;;;;8.35;3.40;;;;;;;-7.08;79.72;101488.53;4920376;28;20229;-77
2022/11/28 10:52:30;;;;;;;3.28;2.40;;;;;;;-7.33;79.78;101477.34;4920305;28;20048;-77
2022/11/28 10:55:18;;;;;;;2.90;2.20;;;;;;;-7.39;80.21;101458.34;4917357;28;20068;-78
2022/11/28 10:58:08;;;;;;;5.20;2.35;;;;;;;-7.58;80.32;101414.56;4916924;28;20071;-78
2022/11/28 11:00:40;;;;;;;4.97;2.38;;;;;;;-7.44;80.08;101425.72;4918753;28;20044;-77
2022/11/28 11:03:16;;;;;;;5.10;2.30;;;;;;;-7.46;80.48;101428.19;4930096;28;20059;-78
2022/11/28 11:05:49;;;;;;;5.40;2.35;;;;;;;-7.41;80.40;101431.94;4924298;28;20044;-78
2022/11/28 11:08:46;;;;;;;5.30;2.53;;;;;;;-7.62;79.93;101440.47;4919271;28;20056;-78
2022/11/28 11:11:26;;;;;;;123.60;27.42;;;;;;;-7.81;80.00;101428.09;4919776;28;20097;-78
2022/11/28 11:14:01;;;;;;;210.48;38.83;;;;;;;-7.70;79.98;101446.66;4923029;28;20345;-77
2022/11/28 11:16:51;;;;;;;110.68;22.35;;;;;;;-7.86;79.94;101445.47;4927151;28;20049;-78
2022/11/28 11:19:32;;;;;;;31.85;8.93;;;;;;;-7.98;80.36;101436.94;4914135;28;20048;-78
2022/11/28 11:22:22;;;;;;;19.85;7.25;;;;;;;-7.83;80.47;101465.13;4921090;28;20045;-78
2022/11/28 11:25:08;;;;;;;24.83;10.02;;;;;;;-8.00;80.54;101441.00;4919756;28;20050;-77
2022/11/28 11:27:53;;;;;;;19.15;8.15;;;;;;;-7.94;80.72;101471.91;4929395;28;20051;-77
2022/11/28 11:30:32;;;;;;;10.30;6.88;;;;;;;-7.89;80.43;101464.66;4905979;28;20069;-77
2022/11/28 11:33:06;;;;;;;4.25;3.45;;;;;;;-8.00;80.44;101466.38;4919340;28;20100;-77
2022/11/28 11:35:48;;;;;;;8.80;3.08;;;;;;;-7.98;80.17;101496.94;4920609;28;20048;-79
2022/11/28 11:38:30;;;;;;;5.68;2.72;;;;;;;-7.87;79.92;101503.72;4904767;28;20367;-78
2022/11/28 11:41:29;;;;;;;9.65;3.70;;;;;;;-8.35;79.85;101434.09;4912992;28;20560;-78
2022/11/28 11:44:33;;;;;;;10.85;3.70;;;;;;;-8.12;80.35;101465.41;4906525;28;20040;-78
2022/11/28 11:47:06;;;;;;;10.52;3.47;;;;;;;-8.29;80.66;101401.59;4901345;28;20109;-78
2022/11/28 11:49:39;;;;;;;11.57;3.95;;;;;;;-7.72;80.60;101465.94;4928681;28;20069;-78
2022/11/28 11:52:18;;;;;;;15.65;6.03;;;;;;;-7.66;81.31;101433.41;4929696;28;20057;-78
2022/11/28 11:55:04;;;;;;;20.15;7.07;;;;;;;-7.46;80.92;101448.50;4918934;28;20052;-78
2022/11/28 11:57:47;;;;;;;16.02;6.60;;;;;;;-7.48;80.53;101465.25;4915441;28;20858;-79
2022/11/28 12:00:21;;;;;;;20.48;9.05;;;;;;;-7.79;80.39;101440.84;4907885;28;20356;-79
2022/11/28 12:02:56;;;;;;;18.50;7.32;;;;;;;-7.72;80.11;101473.56;4921532;28;20307;-79
2022/11/28 12:05:30;;;;;;;18.55;8.43;;;;;;;-7.82;80.84;101493.13;4923007;28;21655;-79